Time;durP1;ratioP1;P1;durP2;ratioP2;P2;SDS_P1;SDS_P2;PMS_P1;PMS_P2;Temp;Humidity;BMP_temperature;BMP_pressure;BME280_temperature;BME280_humidity;BME280_pressure;Samples;Min_cycle;Max_cycle;Signal;HPM_P1;HPM_P2
2022/02/27 00:00:13;;;;;;;11.15;5.05;;;;;;;-1.02;100.00;103488.25;5009279;28;20061;-82
2022/02/27 00:02:42;;;;;;;8.13;4.57;;;;;;;-0.96;100.00;103492.53;5003749;28;20046;-78
2022/02/27 00:05:15;;;;;;;7.93;4.70;;;;;;;-0.82;100.00;103506.22;5019946;28;20053;-80
2022/02/27 00:07:40;;;;;;;8.80;4.10;;;;;;;-0.88;100.00;103493.38;5004816;28;20490;-77
2022/02/27 00:10:07;;;;;;;7.03;4.10;;;;;;;-0.71;100.00;103513.94;5006850;28;20069;-80
2022/02/27 00:12:37;;;;;;;8.35;4.03;;;;;;;-0.73;100.00;103515.66;4969552;28;20057;-77
2022/02/27 00:15:07;;;;;;;10.57;4.50;;;;;;;-0.73;100.00;103507.94;5025055;28;20042;-79
2022/02/27 00:17:36;;;;;;;9.18;4.07;;;;;;;-0.91;100.00;103493.38;5010397;28;21163;-80
2022/02/27 00:20:03;;;;;;;7.55;4.20;;;;;;;-0.95;100.00;103497.69;5019848;28;20037;-82
2022/02/27 00:22:41;;;;;;;9.38;4.50;;;;;;;-1.03;100.00;103496.84;5018452;28;20053;-77
2022/02/27 00:25:08;;;;;;;10.80;4.78;;;;;;;-1.07;100.00;103518.34;5015153;28;20041;-77
2022/02/27 00:27:56;;;;;;;8.25;3.88;;;;;;;-1.27;100.00;103511.47;5012058;28;20030;-82
2022/02/27 00:30:23;;;;;;;9.48;4.45;;;;;;;-1.34;100.00;103514.06;4980756;28;20129;-79
2022/02/27 00:32:49;;;;;;;9.18;4.00;;;;;;;-1.53;100.00;103500.34;4989323;28;20599;-79
2022/02/27 00:35:14;;;;;;;10.15;3.97;;;;;;;-1.59;100.00;103509.78;4982166;28;20422;-79
2022/02/27 00:37:40;;;;;;;7.50;4.00;;;;;;;-1.65;100.00;103506.38;5005151;28;20038;-78
2022/02/27 00:40:07;;;;;;;7.65;4.25;;;;;;;-1.66;100.00;103523.50;4992443;28;20030;-79
2022/02/27 00:42:40;;;;;;;10.60;4.00;;;;;;;-1.77;100.00;103505.50;5011954;28;20030;-86
2022/02/27 00:46:21;;;;;;;12.68;4.20;;;;;;;-1.67;100.00;103502.94;5022074;28;20113;-84
2022/02/27 00:49:14;;;;;;;7.60;4.25;;;;;;;-1.61;100.00;103475.47;5037914;28;20077;-83
2022/02/27 00:52:04;;;;;;;9.82;4.68;;;;;;;-1.41;100.00;103506.34;5027263;28;20050;-78
2022/02/27 00:54:30;;;;;;;9.98;4.03;;;;;;;-1.32;100.00;103504.63;4986584;28;20861;-77
2022/02/27 00:57:23;;;;;;;7.90;4.13;;;;;;;-1.39;100.00;103507.22;4998691;28;20109;-83
2022/02/27 00:59:51;;;;;;;9.90;3.80;;;;;;;-1.53;100.00;103496.06;5001870;28;20098;-84
2022/02/27 01:02:36;;;;;;;6.28;3.92;;;;;;;-1.55;100.00;103500.34;4994987;28;20632;-81
2022/02/27 01:05:13;;;;;;;8.98;3.97;;;;;;;-1.66;100.00;103486.63;5023495;28;20084;-80
2022/02/27 01:08:42;;;;;;;9.77;3.83;;;;;;;-1.46;100.00;103520.09;5040209;28;20028;-83
2022/02/27 01:11:33;;;;;;;10.80;4.03;;;;;;;-1.39;100.00;103520.09;5018434;28;20046;-78
2022/02/27 01:14:00;;;;;;;10.38;4.20;;;;;;;-1.32;100.00;103520.91;4989041;28;20037;-77
2022/02/27 01:16:26;;;;;;;6.28;3.45;;;;;;;-1.29;100.00;103517.50;4991371;28;20839;-79
2022/02/27 01:18:52;;;;;;;8.20;3.72;;;;;;;-1.40;100.00;103492.59;4987315;28;20038;-77
2022/02/27 01:21:17;;;;;;;9.75;3.72;;;;;;;-1.28;100.00;103517.50;4997350;28;20046;-79
2022/02/27 01:23:44;;;;;;;9.13;3.40;;;;;;;-1.28;100.00;103522.66;4987736;28;20038;-77
2022/02/27 01:26:30;;;;;;;9.82;4.00;;;;;;;-1.44;100.00;103501.19;4995275;28;20044;-82
2022/02/27 01:29:15;;;;;;;9.95;3.80;;;;;;;-1.37;100.00;103504.63;4991240;28;20077;-81
2022/02/27 01:32:01;;;;;;;11.68;3.92;;;;;;;-1.31;100.00;103520.06;4986155;28;20447;-78
2022/02/27 01:34:27;;;;;;;8.23;3.78;;;;;;;-1.40;100.00;103514.94;5012145;28;20042;-77
2022/02/27 01:36:53;;;;;;;9.90;3.78;;;;;;;-1.46;100.00;103520.94;4995982;28;20046;-78
2022/02/27 01:39:19;;;;;;;10.40;4.22;;;;;;;-1.49;100.00;103527.81;4980470;28;20045;-78
2022/02/27 01:41:45;;;;;;;8.35;4.15;;;;;;;-1.59;100.00;103517.50;5006917;28;20038;-78
2022/02/27 01:44:11;;;;;;;11.52;4.47;;;;;;;-1.71;100.00;103514.94;5020411;28;20049;-78
2022/02/27 01:46:59;;;;;;;12.13;4.18;;;;;;;-1.95;100.00;103495.19;4995093;28;20068;-78
2022/02/27 01:49:25;;;;;;;8.90;3.88;;;;;;;-1.84;100.00;103515.78;5025924;28;20399;-78
2022/02/27 01:51:51;;;;;;;7.82;3.78;;;;;;;-1.89;100.00;103526.06;5011343;28;20491;-78
2022/02/27 01:54:18;;;;;;;8.77;3.80;;;;;;;-1.97;100.00;103522.63;4978697;28;20064;-78
2022/02/27 01:56:45;;;;;;;7.97;3.85;;;;;;;-1.96;100.00;103525.22;4988512;28;20038;-78
2022/02/27 01:59:10;;;;;;;6.00;3.58;;;;;;;-2.03;100.00;103515.75;4997857;28;20057;-78
2022/02/27 02:01:36;;;;;;;8.05;3.85;;;;;;;-2.10;100.00;103519.16;4961917;28;20038;-78
2022/02/27 02:04:02;;;;;;;6.82;3.75;;;;;;;-2.02;100.00;103530.31;4973284;28;20494;-77
2022/02/27 02:06:27;;;;;;;8.07;3.90;;;;;;;-2.08;100.00;103526.91;5003822;28;20037;-79
2022/02/27 02:08:53;;;;;;;7.20;4.00;;;;;;;-2.14;100.00;103517.44;4977439;28;20048;-77
2022/02/27 02:11:19;;;;;;;7.22;3.63;;;;;;;-2.23;100.00;103515.69;4988859;28;20038;-78
2022/02/27 02:13:44;;;;;;;8.48;4.20;;;;;;;-2.16;100.00;103524.31;5014190;28;20406;-78
2022/02/27 02:16:10;;;;;;;7.72;4.10;;;;;;;-2.23;100.00;103512.28;4982679;28;20446;-77
2022/02/27 02:18:40;;;;;;;8.90;4.05;;;;;;;-2.07;100.00;103528.59;5011115;28;20684;-78
2022/02/27 02:21:07;;;;;;;7.18;3.80;;;;;;;-2.12;100.00;103523.44;4988051;28;20037;-80
2022/02/27 02:23:33;;;;;;;11.23;3.85;;;;;;;-2.04;100.00;103528.63;4992310;28;20067;-78
2022/02/27 02:26:04;;;;;;;8.70;4.15;;;;;;;-1.94;100.00;103522.66;4998706;28;20049;-78
2022/02/27 02:28:30;;;;;;;6.28;3.90;;;;;;;-1.88;100.00;103530.38;4991488;28;20038;-77
2022/02/27 02:30:56;;;;;;;6.90;3.60;;;;;;;-1.94;100.00;103524.34;4991055;28;20104;-79
2022/02/27 02:33:36;;;;;;;7.07;3.95;;;;;;;-1.92;100.00;103528.66;4977109;28;20034;-78
2022/02/27 02:36:04;;;;;;;11.48;4.20;;;;;;;-1.92;100.00;103523.50;4992964;28;20088;-78
2022/02/27 02:38:30;;;;;;;9.52;3.78;;;;;;;-1.82;100.00;103526.94;4990225;28;20038;-78
2022/02/27 02:40:56;;;;;;;8.45;3.90;;;;;;;-1.85;100.00;103519.22;4991593;28;20399;-79
2022/02/27 02:43:35;;;;;;;7.88;3.60;;;;;;;-1.96;100.00;103517.50;5009804;28;20037;-82
2022/02/27 02:46:04;;;;;;;7.95;4.43;;;;;;;-1.99;100.00;103517.47;5026088;28;20063;-83
2022/02/27 02:48:31;;;;;;;11.48;3.67;;;;;;;-2.11;100.00;103509.75;5007967;28;20041;-82
2022/02/27 02:51:26;;;;;;;10.48;4.28;;;;;;;-1.97;100.00;103507.19;5024845;28;20049;-81
2022/02/27 02:53:51;;;;;;;6.65;3.80;;;;;;;-1.98;100.00;103497.75;5006062;28;20038;-77
2022/02/27 02:56:28;;;;;;;6.28;3.35;;;;;;;-2.03;100.00;103508.03;5008242;28;20102;-82
2022/02/27 03:02:58;;;;;;;10.02;4.15;;;;;;;-2.05;100.00;103508.91;5021538;28;20049;-77
2022/02/27 03:05:23;;;;;;;9.25;3.85;;;;;;;-1.82;100.00;103524.38;4986079;28;20054;-78
2022/02/27 03:07:49;;;;;;;7.53;3.97;;;;;;;-1.82;100.00;103520.06;4998196;28;20047;-77
2022/02/27 03:10:15;;;;;;;7.88;3.78;;;;;;;-1.85;100.00;103521.78;4993508;28;20037;-78
2022/02/27 03:12:43;;;;;;;7.72;3.97;;;;;;;-2.00;100.00;103515.78;5002225;28;20042;-79
2022/02/27 03:15:15;;;;;;;11.10;4.82;;;;;;;-1.90;100.00;103518.34;4985435;28;20046;-80
2022/02/27 03:17:52;;;;;;;8.48;4.13;;;;;;;-2.00;100.00;103504.59;5003690;28;20060;-82
2022/02/27 03:20:43;;;;;;;8.93;3.80;;;;;;;-1.78;100.00;103519.22;4978735;28;20060;-78
2022/02/27 03:23:09;;;;;;;8.93;4.35;;;;;;;-1.80;100.00;103513.22;4988098;28;20038;-78
2022/02/27 03:25:35;;;;;;;9.82;4.20;;;;;;;-1.87;100.00;103515.78;5004588;28;20431;-77
2022/02/27 03:28:00;;;;;;;11.05;4.15;;;;;;;-1.93;100.00;103518.34;5010146;28;20065;-81
2022/02/27 03:30:30;;;;;;;11.55;4.70;;;;;;;-2.05;100.00;103519.19;4989115;28;20364;-79
2022/02/27 03:32:56;;;;;;;10.02;4.00;;;;;;;-2.13;100.00;103518.31;5005449;28;20076;-78
2022/02/27 03:35:22;;;;;;;11.15;3.75;;;;;;;-2.22;100.00;103507.16;4992567;28;20072;-79
2022/02/27 03:37:50;;;;;;;11.55;3.80;;;;;;;-2.29;100.00;103514.84;4986778;28;20052;-80
2022/02/27 03:40:19;;;;;;;8.70;3.80;;;;;;;-2.29;100.00;103522.56;4991542;28;20694;-77
2022/02/27 03:42:45;;;;;;;8.20;4.00;;;;;;;-2.27;100.00;103528.56;4992198;28;20046;-77
2022/02/27 03:45:17;;;;;;;11.13;4.22;;;;;;;-2.42;100.00;103513.94;5003732;28;20038;-79
2022/02/27 03:48:07;;;;;;;11.77;4.43;;;;;;;-2.46;100.00;103519.94;5004043;28;20034;-78
2022/02/27 03:51:03;;;;;;;11.00;4.15;;;;;;;-2.45;100.00;103525.06;5019856;28;20440;-80
2022/02/27 03:53:32;;;;;;;7.50;4.05;;;;;;;-2.52;100.00;103515.63;4994287;28;20077;-78
2022/02/27 03:55:57;;;;;;;10.73;4.32;;;;;;;-2.36;100.00;103524.22;4984733;28;20046;-78
2022/02/27 03:58:23;;;;;;;10.23;4.68;;;;;;;-2.35;100.00;103529.38;4989279;28;20065;-76
2022/02/27 04:00:49;;;;;;;11.70;4.40;;;;;;;-2.43;100.00;103518.22;4986072;28;20029;-79
2022/02/27 04:03:15;;;;;;;10.88;4.45;;;;;;;-2.38;100.00;103524.22;5005031;28;20398;-78
2022/02/27 04:05:40;;;;;;;10.25;4.45;;;;;;;-2.36;100.00;103527.66;4977478;28;20033;-78
2022/02/27 04:08:07;;;;;;;13.18;4.47;;;;;;;-2.41;100.00;103518.22;5001247;28;20044;-77
2022/02/27 04:10:33;;;;;;;12.73;4.43;;;;;;;-2.43;100.00;103510.53;4990321;28;20064;-77
2022/02/27 04:12:59;;;;;;;10.82;5.10;;;;;;;-2.33;100.00;103518.25;4995465;28;20050;-77
2022/02/27 04:15:25;;;;;;;12.25;4.85;;;;;;;-2.52;100.00;103500.19;4981661;28;20631;-77
2022/02/27 04:17:51;;;;;;;13.15;4.43;;;;;;;-2.49;100.00;103514.75;4978893;28;20073;-77
2022/02/27 04:20:17;;;;;;;12.38;3.97;;;;;;;-2.51;100.00;103501.91;4974629;28;20064;-79
2022/02/27 04:22:46;;;;;;;10.38;4.47;;;;;;;-2.49;100.00;103507.06;5012196;28;20053;-85
2022/02/27 04:25:11;;;;;;;10.90;4.43;;;;;;;-2.53;100.00;103505.31;5022481;28;20042;-79
2022/02/27 04:27:37;;;;;;;9.82;4.10;;;;;;;-2.51;100.00;103508.75;4983462;28;20049;-79
2022/02/27 04:30:04;;;;;;;8.15;4.25;;;;;;;-2.63;100.00;103507.84;4983391;28;20042;-79
2022/02/27 04:32:30;;;;;;;8.52;3.92;;;;;;;-2.63;100.00;103519.84;4996568;28;20040;-79
2022/02/27 04:34:56;;;;;;;10.98;4.43;;;;;;;-2.72;100.00;103505.25;5025263;28;20057;-81
2022/02/27 04:37:28;;;;;;;9.82;4.15;;;;;;;-2.70;100.00;103518.09;4977643;28;20041;-78
2022/02/27 04:39:54;;;;;;;11.07;4.80;;;;;;;-2.72;100.00;103522.38;4988896;28;20052;-79
2022/02/27 04:42:20;;;;;;;11.68;4.22;;;;;;;-2.71;100.00;103526.66;4989397;28;20026;-81
2022/02/27 04:44:45;;;;;;;13.73;4.38;;;;;;;-2.76;100.00;103529.22;4976799;28;20521;-78
2022/02/27 04:47:11;;;;;;;8.77;4.70;;;;;;;-2.77;100.00;103523.22;5005812;28;20046;-79
2022/02/27 04:49:37;;;;;;;11.15;4.32;;;;;;;-2.85;100.00;103517.16;4967125;28;20344;-79
2022/02/27 04:52:04;;;;;;;10.57;4.30;;;;;;;-2.87;100.00;103507.75;4989733;28;20091;-78
2022/02/27 04:54:30;;;;;;;10.63;4.03;;;;;;;-2.88;100.00;103512.03;4992387;28;20030;-77
2022/02/27 04:56:56;;;;;;;10.73;4.45;;;;;;;-2.89;100.00;103506.88;5002180;28;20030;-78
2022/02/27 04:59:21;;;;;;;12.15;4.30;;;;;;;-2.72;100.00;103515.53;4969216;28;20122;-78
2022/02/27 05:01:47;;;;;;;12.07;4.60;;;;;;;-2.67;100.00;103513.84;5007114;28;20044;-78
2022/02/27 05:04:13;;;;;;;15.38;4.85;;;;;;;-2.56;100.00;103513.91;4992914;28;20125;-78
2022/02/27 05:06:39;;;;;;;11.40;4.32;;;;;;;-2.62;100.00;103514.72;5013886;28;20038;-79
2022/02/27 05:09:05;;;;;;;11.77;5.03;;;;;;;-2.67;100.00;103513.84;4996125;28;20181;-80
2022/02/27 05:11:31;;;;;;;15.38;4.70;;;;;;;-2.61;100.00;103531.00;5000788;28;20026;-78
2022/02/27 05:13:56;;;;;;;13.45;4.97;;;;;;;-2.51;100.00;103525.03;5026712;28;20045;-77
2022/02/27 05:16:22;;;;;;;14.32;4.97;;;;;;;-2.55;100.00;103515.59;4996462;28;20100;-79
2022/02/27 05:18:48;;;;;;;12.50;4.80;;;;;;;-2.56;100.00;103526.75;5013451;28;20132;-79
2022/02/27 05:21:14;;;;;;;18.35;4.85;;;;;;;-2.60;100.00;103502.75;4982521;28;20085;-80
2022/02/27 05:23:41;;;;;;;9.07;4.72;;;;;;;-2.66;100.00;103512.13;5002612;28;20037;-81
2022/02/27 05:26:11;;;;;;;11.55;4.60;;;;;;;-2.68;100.00;103530.09;5029596;28;20073;-82
2022/02/27 05:28:39;;;;;;;12.75;4.50;;;;;;;-2.70;100.00;103528.38;4998406;28;20033;-78
2022/02/27 05:31:05;;;;;;;12.00;4.78;;;;;;;-2.66;100.00;103523.25;4982021;28;20124;-80
2022/02/27 05:33:30;;;;;;;8.65;4.57;;;;;;;-2.63;100.00;103536.13;4998491;28;20434;-78
2022/02/27 05:35:56;;;;;;;13.23;4.85;;;;;;;-2.59;100.00;103530.16;4998873;28;20034;-76
2022/02/27 05:38:22;;;;;;;13.30;4.68;;;;;;;-2.55;100.00;103541.28;5017115;28;20046;-78
2022/02/27 05:40:47;;;;;;;9.68;4.05;;;;;;;-2.63;100.00;103533.56;5034847;28;20030;-78
2022/02/27 05:43:16;;;;;;;13.70;4.70;;;;;;;-2.61;100.00;103538.72;4997189;28;20050;-84
2022/02/27 05:45:42;;;;;;;13.35;4.57;;;;;;;-2.59;100.00;103547.28;4984661;28;20050;-78
2022/02/27 05:48:07;;;;;;;10.65;4.55;;;;;;;-2.60;100.00;103555.81;5003630;28;20044;-79
2022/02/27 05:50:33;;;;;;;10.50;4.90;;;;;;;-2.61;100.00;103559.28;5023896;28;20037;-80
2022/02/27 05:52:59;;;;;;;14.00;5.63;;;;;;;-2.64;100.00;103565.22;4986983;28;20048;-78
2022/02/27 05:55:24;;;;;;;11.75;4.70;;;;;;;-2.50;100.00;103570.47;4979565;28;20065;-80
2022/02/27 05:57:50;;;;;;;10.05;4.70;;;;;;;-2.54;100.00;103568.72;5005431;28;20076;-79
2022/02/27 06:00:16;;;;;;;11.32;4.70;;;;;;;-2.43;100.00;103573.91;4985395;28;20034;-79
2022/02/27 06:02:42;;;;;;;10.52;4.43;;;;;;;-2.48;100.00;103553.34;5004997;28;20038;-78
2022/02/27 06:05:08;;;;;;;8.73;4.78;;;;;;;-2.46;100.00;103556.75;5011254;28;20041;-79
2022/02/27 06:07:33;;;;;;;12.55;5.13;;;;;;;-2.41;100.00;103569.63;4994979;28;20030;-79
2022/02/27 06:09:59;;;;;;;21.27;5.32;;;;;;;-2.46;100.00;103564.47;5021383;28;20037;-78
2022/02/27 06:12:25;;;;;;;10.40;4.57;;;;;;;-2.55;100.00;103534.44;4992252;28;20092;-81
2022/02/27 06:14:51;;;;;;;14.00;4.97;;;;;;;-2.44;100.00;103555.06;5019776;28;20057;-79
2022/02/27 06:17:17;;;;;;;12.48;4.75;;;;;;;-2.40;100.00;103553.34;5004544;28;20038;-80
2022/02/27 06:19:42;;;;;;;11.98;4.63;;;;;;;-2.50;100.00;103542.19;5007482;28;20042;-78
2022/02/27 06:22:08;;;;;;;10.48;4.63;;;;;;;-2.46;100.00;103548.19;5023995;28;20570;-78
2022/02/27 06:24:33;;;;;;;11.98;4.97;;;;;;;-2.56;100.00;103549.88;5012013;28;20030;-79
2022/02/27 06:27:00;;;;;;;10.90;5.38;;;;;;;-2.60;100.00;103556.72;5004150;28;20045;-79
2022/02/27 06:29:25;;;;;;;12.55;4.75;;;;;;;-2.70;100.00;103570.34;4980190;28;20049;-77
2022/02/27 06:31:51;;;;;;;11.57;4.80;;;;;;;-2.79;100.00;103575.44;4994296;28;20026;-77
2022/02/27 06:34:17;;;;;;;13.45;4.50;;;;;;;-2.88;100.00;103568.53;4989043;28;20616;-78
2022/02/27 06:36:42;;;;;;;12.88;5.00;;;;;;;-2.92;100.00;103560.78;4989988;28;20649;-79
2022/02/27 06:39:08;;;;;;;9.57;4.57;;;;;;;-3.00;100.00;103560.75;4985710;28;20048;-79
2022/02/27 06:41:33;;;;;;;8.63;4.55;;;;;;;-2.94;100.00;103569.38;4994433;28;20069;-76
2022/02/27 06:43:59;;;;;;;9.15;4.30;;;;;;;-2.92;100.00;103577.06;4986670;28;20046;-77
2022/02/27 06:46:25;;;;;;;11.20;4.60;;;;;;;-2.88;100.00;103572.81;5009260;28;20034;-78
2022/02/27 06:48:50;;;;;;;15.75;5.45;;;;;;;-2.86;100.00;103571.09;4991288;28;20592;-77
2022/02/27 06:51:16;;;;;;;17.77;5.22;;;;;;;-2.85;100.00;103571.13;4985960;28;20114;-78
2022/02/27 06:53:41;;;;;;;14.32;5.50;;;;;;;-2.82;100.00;103567.72;5005813;28;20049;-77
2022/02/27 06:56:07;;;;;;;10.93;4.68;;;;;;;-2.80;100.00;103568.59;5026098;28;20487;-76
2022/02/27 06:58:33;;;;;;;14.98;5.05;;;;;;;-2.68;100.00;103583.22;5005514;28;20817;-77
2022/02/27 07:00:58;;;;;;;11.88;4.72;;;;;;;-2.64;100.00;103578.09;5015540;28;20773;-78
2022/02/27 07:03:24;;;;;;;11.30;4.60;;;;;;;-2.66;100.00;103573.78;5014778;28;20038;-79
2022/02/27 07:05:51;;;;;;;10.30;4.65;;;;;;;-2.37;100.00;103608.22;5009887;28;20046;-79
2022/02/27 07:08:16;;;;;;;12.95;4.70;;;;;;;-2.29;100.00;103599.69;5015710;28;20132;-77
2022/02/27 07:10:42;;;;;;;12.43;4.55;;;;;;;-2.12;100.00;103608.31;4993162;28;20136;-79
2022/02/27 07:13:08;;;;;;;10.15;4.88;;;;;;;-2.05;100.00;103604.94;4996864;28;20057;-79
2022/02/27 07:15:34;;;;;;;11.88;4.75;;;;;;;-1.89;100.00;103608.41;5016168;28;20038;-78
2022/02/27 07:18:01;;;;;;;10.57;4.40;;;;;;;-1.73;100.00;103609.31;5002040;28;20057;-79
2022/02/27 07:20:30;;;;;;;10.50;5.05;;;;;;;-1.64;100.00;103593.88;4982247;28;20049;-77
2022/02/27 07:22:56;;;;;;;13.00;5.13;;;;;;;-1.39;100.00;103609.34;5009196;28;20581;-77
2022/02/27 07:25:21;;;;;;;11.70;5.10;;;;;;;-1.27;100.00;103613.66;5001152;28;20041;-77
2022/02/27 07:27:47;;;;;;;12.70;5.43;;;;;;;-1.14;100.00;103615.34;5005892;28;20157;-78
2022/02/27 07:30:12;;;;;;;16.20;5.22;;;;;;;-1.01;100.00;103613.63;5006058;28;20076;-79
2022/02/27 07:32:38;;;;;;;11.05;4.72;;;;;;;-0.91;100.00;103606.75;4994429;28;20478;-78
2022/02/27 07:35:04;;;;;;;12.95;4.78;;;;;;;-0.84;100.00;103608.47;5010970;28;20037;-77
2022/02/27 07:37:30;;;;;;;14.13;4.72;;;;;;;-0.84;100.00;103593.00;4990761;28;20034;-78
2022/02/27 07:39:56;;;;;;;12.77;4.80;;;;;;;-0.64;100.00;103614.44;4990266;28;20396;-77
2022/02/27 07:42:24;;;;;;;11.13;4.80;;;;;;;-0.59;100.00;103609.28;5012662;28;20505;-77
2022/02/27 07:44:51;;;;;;;17.55;5.30;;;;;;;-0.43;100.00;103612.69;4990199;28;20120;-78
2022/02/27 07:47:17;;;;;;;10.35;4.22;;;;;;;-0.44;100.00;103613.53;4965011;28;20038;-79
2022/02/27 07:49:42;;;;;;;10.35;4.18;;;;;;;-0.38;100.00;103618.66;4989083;28;20129;-79
2022/02/27 07:52:08;;;;;;;12.50;4.75;;;;;;;-0.27;100.00;103623.78;4991142;28;20038;-82
2022/02/27 07:54:34;;;;;;;9.90;4.82;;;;;;;-0.20;100.00;103615.16;4974981;28;20491;-76
2022/02/27 07:56:59;;;;;;;11.95;5.20;;;;;;;-0.15;100.00;103609.97;4984409;28;20419;-78
2022/02/27 07:59:25;;;;;;;12.65;4.85;;;;;;;-0.11;100.00;103620.28;4997920;28;20038;-77
2022/02/27 08:01:50;;;;;;;8.60;4.28;;;;;;;-0.06;100.00;103620.25;5004722;28;20044;-77
2022/02/27 08:04:16;;;;;;;14.73;5.07;;;;;;;0.04;100.00;103631.38;4992976;28;20127;-78
2022/02/27 08:06:42;;;;;;;10.15;4.90;;;;;;;-0.04;100.00;103627.16;4980153;28;20499;-78
2022/02/27 08:09:07;;;;;;;12.48;4.68;;;;;;;0.03;100.00;103630.53;4979756;28;20117;-77
2022/02/27 08:11:33;;;;;;;11.55;4.95;;;;;;;0.05;100.00;103625.38;5009392;28;20057;-76
2022/02/27 08:14:00;;;;;;;13.27;5.20;;;;;;;0.09;100.00;103630.50;4977407;28;20038;-77
2022/02/27 08:16:27;;;;;;;13.32;5.03;;;;;;;0.12;100.00;103620.16;4986620;28;20034;-77
2022/02/27 08:18:53;;;;;;;12.40;4.95;;;;;;;0.22;100.00;103627.88;4985765;28;20527;-78
2022/02/27 08:21:19;;;;;;;13.45;4.97;;;;;;;0.36;100.00;103629.50;4982668;28;20037;-78
2022/02/27 08:23:45;;;;;;;13.30;5.18;;;;;;;0.35;100.00;103617.44;4986580;28;20042;-78
2022/02/27 08:26:10;;;;;;;12.65;5.00;;;;;;;0.35;100.00;103622.59;5010666;28;20045;-79
2022/02/27 08:28:36;;;;;;;12.50;4.95;;;;;;;0.45;100.00;103625.97;5001488;28;20038;-77
2022/02/27 08:31:02;;;;;;;16.55;5.53;;;;;;;0.56;100.00;103631.94;4989896;28;20037;-78
2022/02/27 08:33:28;;;;;;;11.45;5.65;;;;;;;0.64;100.00;103631.91;4983281;28;20479;-77
2022/02/27 08:35:57;;;;;;;13.18;5.05;;;;;;;0.61;100.00;103615.56;5009640;28;20052;-78
2022/02/27 08:38:23;;;;;;;14.60;5.30;;;;;;;0.86;100.00;103636.91;4983940;28;20528;-77
2022/02/27 08:40:51;;;;;;;14.95;5.40;;;;;;;1.01;100.00;103634.19;5002457;28;20415;-78
2022/02/27 08:43:17;;;;;;;14.60;5.53;;;;;;;1.10;100.00;103639.25;5007377;28;20125;-79
2022/02/27 08:45:43;;;;;;;14.98;5.40;;;;;;;1.24;100.00;103631.38;4987692;28;20038;-78
2022/02/27 08:48:09;;;;;;;10.77;4.82;;;;;;;1.23;100.00;103623.66;4989938;28;20044;-78
2022/02/27 08:50:40;;;;;;;13.20;5.63;;;;;;;1.34;100.00;103642.50;5000674;28;20025;-80
2022/02/27 08:53:05;;;;;;;10.88;5.05;;;;;;;1.19;100.00;103637.44;5013084;28;20052;-78
2022/02/27 08:55:37;;;;;;;14.15;5.60;;;;;;;1.34;100.00;103639.91;5019918;28;20038;-77
2022/02/27 08:58:05;;;;;;;13.13;5.00;;;;;;;1.21;100.00;103623.66;4997935;28;20052;-80
2022/02/27 09:00:30;;;;;;;17.27;5.53;;;;;;;1.33;100.00;103639.03;5002568;28;20039;-77
2022/02/27 09:02:56;;;;;;;11.07;4.95;;;;;;;1.36;100.00;103635.59;5002332;28;20393;-77
2022/02/27 09:05:21;;;;;;;12.38;5.38;;;;;;;1.45;100.00;103626.84;4978165;28;20058;-78
2022/02/27 09:07:47;;;;;;;12.10;5.30;;;;;;;1.41;100.00;103627.75;4996369;28;20073;-77
2022/02/27 09:10:16;;;;;;;16.52;4.85;;;;;;;1.48;100.00;103632.84;5008407;28;20598;-76
2022/02/27 09:12:44;;;;;;;15.73;5.13;;;;;;;1.63;100.00;103637.00;4998991;28;20133;-79
2022/02/27 09:15:12;;;;;;;16.00;5.32;;;;;;;1.66;100.00;103625.78;5009865;28;20042;-77
2022/02/27 09:17:38;;;;;;;16.85;5.80;;;;;;;1.71;100.00;103622.25;5003008;28;20123;-78
2022/02/27 09:20:06;;;;;;;12.07;5.10;;;;;;;1.90;100.00;103632.34;4980655;28;20089;-77
2022/02/27 09:22:32;;;;;;;13.82;4.90;;;;;;;1.77;100.00;103633.38;4986219;28;20103;-79
2022/02/27 09:24:58;;;;;;;10.88;5.03;;;;;;;1.84;100.00;103633.28;5002626;28;20088;-79
2022/02/27 09:27:24;;;;;;;17.55;6.03;;;;;;;1.99;100.00;103626.22;4986762;28;20058;-79
2022/02/27 09:29:50;;;;;;;15.13;6.15;;;;;;;2.00;100.00;103630.50;4991938;28;20061;-79
2022/02/27 09:32:16;;;;;;;13.60;5.75;;;;;;;2.03;100.00;103628.72;5000259;28;20041;-76
2022/02/27 09:34:41;;;;;;;18.88;6.05;;;;;;;2.03;100.00;103623.56;4974588;28;20499;-75
2022/02/27 09:37:07;;;;;;;15.63;5.72;;;;;;;2.07;100.00;103620.06;4984431;28;20395;-78
2022/02/27 09:39:33;;;;;;;13.52;5.88;;;;;;;2.16;100.00;103631.19;4968759;28;20073;-76
2022/02/27 09:41:58;;;;;;;14.13;5.53;;;;;;;2.14;100.00;103626.84;4997743;28;20408;-77
2022/02/27 09:44:24;;;;;;;13.63;6.05;;;;;;;2.23;100.00;103627.63;5012487;28;20534;-76
2022/02/27 09:46:50;;;;;;;15.35;5.68;;;;;;;2.23;100.00;103640.56;4993440;28;20034;-77
2022/02/27 09:49:16;;;;;;;13.68;5.88;;;;;;;2.28;100.00;103630.97;4997762;28;20040;-79
2022/02/27 09:51:42;;;;;;;18.90;5.28;;;;;;;2.39;100.00;103634.28;5009274;28;20049;-78
2022/02/27 09:54:09;;;;;;;14.25;5.47;;;;;;;2.59;100.00;103627.97;4996925;28;20113;-79
2022/02/27 09:56:35;;;;;;;13.20;4.70;;;;;;;2.68;100.00;103623.47;4992221;28;20030;-81
2022/02/27 09:59:01;;;;;;;14.18;5.30;;;;;;;2.69;100.00;103622.63;5001954;28;20034;-80
2022/02/27 10:01:27;;;;;;;11.07;5.50;;;;;;;2.84;100.00;103618.88;4988460;28;20034;-78
2022/02/27 10:03:53;;;;;;;11.32;5.40;;;;;;;2.85;100.00;103610.25;4988553;28;20038;-76
2022/02/27 10:06:19;;;;;;;15.68;5.93;;;;;;;2.95;100.00;103620.47;4986618;28;20403;-77
2022/02/27 10:08:47;;;;;;;13.82;5.40;;;;;;;2.88;100.00;103622.28;4984618;28;20049;-78
2022/02/27 10:11:17;;;;;;;18.75;6.18;;;;;;;3.06;100.00;103621.13;4995306;28;20038;-78
2022/02/27 10:13:48;;;;;;;18.08;6.20;;;;;;;3.09;100.00;103621.09;4992197;28;20053;-78
2022/02/27 10:16:13;;;;;;;15.73;5.60;;;;;;;3.15;100.00;103622.72;5008960;28;20033;-80
2022/02/27 10:18:45;;;;;;;18.80;6.07;;;;;;;3.07;100.00;103618.50;4984315;28;20052;-78
2022/02/27 10:21:25;;;;;;;14.95;6.25;;;;;;;3.20;100.00;103629.53;5009951;28;20437;-77
2022/02/27 10:24:11;;;;;;;14.00;5.25;;;;;;;3.39;100.00;103624.84;5011814;28;20033;-76
2022/02/27 10:26:43;;;;;;;11.32;5.30;;;;;;;3.55;100.00;103617.63;4986472;28;20038;-76
2022/02/27 10:29:25;;;;;;;13.45;5.97;;;;;;;3.58;100.00;103620.16;4992006;28;20041;-77
2022/02/27 10:31:57;;;;;;;11.97;5.03;;;;;;;3.66;100.00;103628.63;5003747;28;20396;-77
2022/02/27 10:34:31;;;;;;;14.57;5.28;;;;;;;3.80;100.00;103628.34;4976317;28;20060;-77
2022/02/27 10:36:58;;;;;;;12.90;5.30;;;;;;;3.82;100.00;103636.94;5002992;28;20427;-78
2022/02/27 10:39:46;;;;;;;14.23;5.35;;;;;;;3.80;100.00;103627.50;4988104;28;20045;-77
2022/02/27 10:42:16;;;;;;;16.17;5.70;;;;;;;3.92;99.89;103627.25;5017067;28;20609;-78
2022/02/27 10:44:51;;;;;;;16.40;5.88;;;;;;;3.97;100.00;103629.75;5021508;28;20042;-78
2022/02/27 10:47:19;;;;;;;12.82;5.55;;;;;;;4.08;99.45;103630.38;4993202;28;20068;-81
2022/02/27 10:49:47;;;;;;;11.18;5.03;;;;;;;4.23;98.57;103626.56;4983284;28;20084;-79
2022/02/27 10:52:21;;;;;;;13.30;5.47;;;;;;;4.34;100.00;103622.00;4997132;28;20033;-79
2022/02/27 10:55:08;;;;;;;13.60;5.30;;;;;;;4.36;97.01;103628.00;4990937;28;20100;-77
2022/02/27 10:57:39;;;;;;;12.63;5.32;;;;;;;4.44;97.08;103633.88;4962468;28;20035;-77
2022/02/27 11:00:14;;;;;;;13.13;5.63;;;;;;;4.35;96.79;103618.50;4984632;28;20049;-80
2022/02/27 11:02:41;;;;;;;13.38;5.72;;;;;;;4.45;98.30;103619.16;4998940;28;20073;-75
2022/02/27 11:05:12;;;;;;;12.00;5.80;;;;;;;4.40;97.71;103621.84;5008083;28;20527;-77
2022/02/27 11:07:41;;;;;;;13.75;5.43;;;;;;;4.26;96.90;103616.97;5005115;28;20531;-75
2022/02/27 11:10:09;;;;;;;13.82;5.50;;;;;;;4.14;97.95;103616.38;4974864;28;20404;-78
2022/02/27 11:12:36;;;;;;;13.95;5.80;;;;;;;4.32;98.04;103621.16;4988359;28;20034;-75
2022/02/27 11:15:05;;;;;;;12.60;6.40;;;;;;;4.38;99.21;103605.44;5010277;28;20034;-77
2022/02/27 11:17:32;;;;;;;12.82;5.70;;;;;;;4.46;96.35;103618.25;5010314;28;20129;-77
2022/02/27 11:20:00;;;;;;;10.55;5.13;;;;;;;4.59;96.43;103613.59;5011039;28;20041;-76
2022/02/27 11:22:27;;;;;;;10.82;5.13;;;;;;;4.64;95.86;103599.59;4983124;28;20125;-77
2022/02/27 11:24:58;;;;;;;12.52;5.65;;;;;;;4.77;94.50;103597.56;5000124;28;20041;-77